sensor_id;sensor_type;location;lat;lon;timestamp;P1;durP1;ratioP1;P2;durP2;ratioP2
8500;SDS011;4288;48.484;10.024;2023-06-19T00:01:47;6.40;;;5.50;;
8500;SDS011;4288;48.484;10.024;2023-06-19T00:04:15;9.10;;;5.47;;
8500;SDS011;4288;48.484;10.024;2023-06-19T00:06:42;8.20;;;6.70;;
8500;SDS011;4288;48.484;10.024;2023-06-19T00:09:10;8.43;;;6.57;;
8500;SDS011;4288;48.484;10.024;2023-06-19T00:11:38;12.70;;;7.40;;
8500;SDS011;4288;48.484;10.024;2023-06-19T00:14:05;6.97;;;5.70;;
8500;SDS011;4288;48.484;10.024;2023-06-19T00:16:34;6.93;;;5.63;;
8500;SDS011;4288;48.484;10.024;2023-06-19T00:19:01;6.70;;;5.47;;
8500;SDS011;4288;48.484;10.024;2023-06-19T00:21:29;7.63;;;5.20;;
8500;SDS011;4288;48.484;10.024;2023-06-19T00:23:56;7.60;;;5.63;;
8500;SDS011;4288;48.484;10.024;2023-06-19T00:26:24;7.23;;;5.63;;
8500;SDS011;4288;48.484;10.024;2023-06-19T00:28:51;9.37;;;5.70;;
8500;SDS011;4288;48.484;10.024;2023-06-19T00:31:19;7.20;;;5.93;;
8500;SDS011;4288;48.484;10.024;2023-06-19T00:33:47;9.07;;;5.77;;
8500;SDS011;4288;48.484;10.024;2023-06-19T00:36:15;9.73;;;6.03;;
8500;SDS011;4288;48.484;10.024;2023-06-19T00:38:45;8.23;;;5.77;;
8500;SDS011;4288;48.484;10.024;2023-06-19T00:41:13;6.73;;;5.83;;
8500;SDS011;4288;48.484;10.024;2023-06-19T00:43:42;10.47;;;7.10;;
8500;SDS011;4288;48.484;10.024;2023-06-19T00:46:10;7.90;;;6.40;;
8500;SDS011;4288;48.484;10.024;2023-06-19T00:48:38;7.77;;;6.50;;
8500;SDS011;4288;48.484;10.024;2023-06-19T00:51:07;8.80;;;6.30;;
8500;SDS011;4288;48.484;10.024;2023-06-19T00:53:35;7.00;;;5.97;;
8500;SDS011;4288;48.484;10.024;2023-06-19T00:56:03;8.30;;;6.27;;
8500;SDS011;4288;48.484;10.024;2023-06-19T00:58:31;10.43;;;6.23;;
8500;SDS011;4288;48.484;10.024;2023-06-19T01:01:00;8.30;;;6.10;;
8500;SDS011;4288;48.484;10.024;2023-06-19T01:03:27;11.90;;;6.50;;
8500;SDS011;4288;48.484;10.024;2023-06-19T01:05:55;8.97;;;6.70;;
8500;SDS011;4288;48.484;10.024;2023-06-19T01:08:33;10.60;;;6.40;;
8500;SDS011;4288;48.484;10.024;2023-06-19T01:11:09;7.43;;;6.03;;
8500;SDS011;4288;48.484;10.024;2023-06-19T01:13:40;6.60;;;5.27;;
8500;SDS011;4288;48.484;10.024;2023-06-19T01:16:11;8.50;;;6.57;;
8500;SDS011;4288;48.484;10.024;2023-06-19T01:18:38;7.27;;;5.40;;
8500;SDS011;4288;48.484;10.024;2023-06-19T01:21:10;14.97;;;6.47;;
8500;SDS011;4288;48.484;10.024;2023-06-19T01:23:40;6.13;;;5.10;;
8500;SDS011;4288;48.484;10.024;2023-06-19T01:26:09;6.70;;;5.70;;
8500;SDS011;4288;48.484;10.024;2023-06-19T01:28:37;6.80;;;5.37;;
8500;SDS011;4288;48.484;10.024;2023-06-19T01:31:08;7.43;;;6.10;;
8500;SDS011;4288;48.484;10.024;2023-06-19T01:33:39;11.00;;;6.70;;
8500;SDS011;4288;48.484;10.024;2023-06-19T01:36:08;6.83;;;6.10;;
8500;SDS011;4288;48.484;10.024;2023-06-19T01:38:36;8.20;;;7.30;;
8500;SDS011;4288;48.484;10.024;2023-06-19T01:41:06;7.70;;;5.60;;
8500;SDS011;4288;48.484;10.024;2023-06-19T01:43:35;9.13;;;6.00;;
8500;SDS011;4288;48.484;10.024;2023-06-19T01:46:04;9.23;;;5.70;;
8500;SDS011;4288;48.484;10.024;2023-06-19T01:48:31;8.73;;;6.57;;
8500;SDS011;4288;48.484;10.024;2023-06-19T01:51:00;8.20;;;5.97;;
8500;SDS011;4288;48.484;10.024;2023-06-19T01:53:29;8.27;;;6.70;;
8500;SDS011;4288;48.484;10.024;2023-06-19T01:55:58;7.37;;;5.83;;
8500;SDS011;4288;48.484;10.024;2023-06-19T01:58:26;10.90;;;7.40;;
8500;SDS011;4288;48.484;10.024;2023-06-19T02:00:54;9.37;;;7.37;;
8500;SDS011;4288;48.484;10.024;2023-06-19T02:03:21;9.10;;;6.10;;
8500;SDS011;4288;48.484;10.024;2023-06-19T02:05:49;8.50;;;6.10;;
8500;SDS011;4288;48.484;10.024;2023-06-19T02:08:16;11.13;;;6.80;;
8500;SDS011;4288;48.484;10.024;2023-06-19T02:10:43;7.23;;;5.87;;
8500;SDS011;4288;48.484;10.024;2023-06-19T02:13:12;11.10;;;6.40;;
8500;SDS011;4288;48.484;10.024;2023-06-19T02:15:40;10.03;;;5.70;;
8500;SDS011;4288;48.484;10.024;2023-06-19T02:18:08;8.07;;;5.83;;
8500;SDS011;4288;48.484;10.024;2023-06-19T02:20:35;10.50;;;5.87;;
8500;SDS011;4288;48.484;10.024;2023-06-19T02:23:02;8.43;;;6.00;;
8500;SDS011;4288;48.484;10.024;2023-06-19T02:25:30;9.50;;;6.00;;
8500;SDS011;4288;48.484;10.024;2023-06-19T02:27:58;13.03;;;6.70;;
8500;SDS011;4288;48.484;10.024;2023-06-19T02:30:27;8.90;;;4.90;;
8500;SDS011;4288;48.484;10.024;2023-06-19T02:32:54;7.20;;;6.40;;
8500;SDS011;4288;48.484;10.024;2023-06-19T02:35:22;8.17;;;6.00;;
8500;SDS011;4288;48.484;10.024;2023-06-19T02:37:49;8.20;;;6.60;;
8500;SDS011;4288;48.484;10.024;2023-06-19T02:40:17;7.90;;;5.83;;
8500;SDS011;4288;48.484;10.024;2023-06-19T02:42:44;10.40;;;6.50;;
8500;SDS011;4288;48.484;10.024;2023-06-19T02:45:11;8.23;;;5.60;;
8500;SDS011;4288;48.484;10.024;2023-06-19T02:47:40;6.70;;;6.00;;
8500;SDS011;4288;48.484;10.024;2023-06-19T02:50:08;9.30;;;6.93;;
8500;SDS011;4288;48.484;10.024;2023-06-19T02:52:35;9.60;;;6.37;;
8500;SDS011;4288;48.484;10.024;2023-06-19T02:55:03;8.93;;;7.10;;
8500;SDS011;4288;48.484;10.024;2023-06-19T02:57:32;11.50;;;7.90;;
8500;SDS011;4288;48.484;10.024;2023-06-19T02:59:59;9.57;;;6.83;;
8500;SDS011;4288;48.484;10.024;2023-06-19T03:02:27;9.90;;;6.93;;
8500;SDS011;4288;48.484;10.024;2023-06-19T03:04:56;12.10;;;6.80;;
8500;SDS011;4288;48.484;10.024;2023-06-19T03:07:23;11.57;;;6.03;;
8500;SDS011;4288;48.484;10.024;2023-06-19T03:09:53;10.77;;;5.67;;
8500;SDS011;4288;48.484;10.024;2023-06-19T03:12:21;6.90;;;5.90;;
8500;SDS011;4288;48.484;10.024;2023-06-19T03:14:48;6.40;;;5.10;;
8500;SDS011;4288;48.484;10.024;2023-06-19T03:17:16;8.33;;;5.70;;
8500;SDS011;4288;48.484;10.024;2023-06-19T03:19:43;6.00;;;4.67;;
8500;SDS011;4288;48.484;10.024;2023-06-19T03:22:12;5.80;;;4.80;;
8500;SDS011;4288;48.484;10.024;2023-06-19T03:24:39;6.27;;;5.33;;
8500;SDS011;4288;48.484;10.024;2023-06-19T03:27:06;6.07;;;5.27;;
8500;SDS011;4288;48.484;10.024;2023-06-19T03:29:34;6.67;;;5.33;;
8500;SDS011;4288;48.484;10.024;2023-06-19T03:32:01;6.07;;;5.23;;
8500;SDS011;4288;48.484;10.024;2023-06-19T03:34:29;6.53;;;5.10;;
8500;SDS011;4288;48.484;10.024;2023-06-19T03:36:56;12.80;;;6.27;;
8500;SDS011;4288;48.484;10.024;2023-06-19T03:39:25;11.10;;;6.30;;
8500;SDS011;4288;48.484;10.024;2023-06-19T03:41:52;8.00;;;5.60;;
8500;SDS011;4288;48.484;10.024;2023-06-19T03:44:19;10.10;;;6.30;;
8500;SDS011;4288;48.484;10.024;2023-06-19T03:46:47;7.40;;;5.63;;
8500;SDS011;4288;48.484;10.024;2023-06-19T03:49:15;8.83;;;6.00;;
8500;SDS011;4288;48.484;10.024;2023-06-19T03:51:43;10.23;;;6.43;;
8500;SDS011;4288;48.484;10.024;2023-06-19T03:54:10;10.87;;;6.30;;
8500;SDS011;4288;48.484;10.024;2023-06-19T03:56:39;8.37;;;6.27;;
8500;SDS011;4288;48.484;10.024;2023-06-19T03:59:06;8.13;;;6.07;;
8500;SDS011;4288;48.484;10.024;2023-06-19T04:01:34;6.57;;;5.17;;
8500;SDS011;4288;48.484;10.024;2023-06-19T04:04:01;7.97;;;5.83;;
8500;SDS011;4288;48.484;10.024;2023-06-19T04:06:28;9.50;;;6.20;;
8500;SDS011;4288;48.484;10.024;2023-06-19T04:08:56;8.73;;;6.07;;
8500;SDS011;4288;48.484;10.024;2023-06-19T04:11:23;6.77;;;5.53;;
8500;SDS011;4288;48.484;10.024;2023-06-19T04:13:52;8.20;;;5.90;;
8500;SDS011;4288;48.484;10.024;2023-06-19T04:16:19;10.23;;;6.37;;
8500;SDS011;4288;48.484;10.024;2023-06-19T04:18:46;7.13;;;4.90;;
8500;SDS011;4288;48.484;10.024;2023-06-19T04:21:14;9.13;;;6.00;;
8500;SDS011;4288;48.484;10.024;2023-06-19T04:23:41;6.03;;;5.27;;
8500;SDS011;4288;48.484;10.024;2023-06-19T04:26:09;6.93;;;5.43;;
8500;SDS011;4288;48.484;10.024;2023-06-19T04:28:36;8.67;;;5.23;;
8500;SDS011;4288;48.484;10.024;2023-06-19T04:31:05;8.20;;;5.13;;
8500;SDS011;4288;48.484;10.024;2023-06-19T04:33:33;6.67;;;4.30;;
8500;SDS011;4288;48.484;10.024;2023-06-19T04:36:00;4.50;;;4.10;;
8500;SDS011;4288;48.484;10.024;2023-06-19T04:38:27;5.33;;;4.17;;
8500;SDS011;4288;48.484;10.024;2023-06-19T04:40:55;6.47;;;4.33;;
8500;SDS011;4288;48.484;10.024;2023-06-19T04:43:23;5.47;;;3.70;;
8500;SDS011;4288;48.484;10.024;2023-06-19T04:45:50;4.00;;;3.60;;
8500;SDS011;4288;48.484;10.024;2023-06-19T04:48:19;4.47;;;3.50;;
8500;SDS011;4288;48.484;10.024;2023-06-19T04:50:49;5.50;;;2.97;;
8500;SDS011;4288;48.484;10.024;2023-06-19T04:53:17;4.80;;;3.30;;
8500;SDS011;4288;48.484;10.024;2023-06-19T04:55:44;4.03;;;3.57;;
8500;SDS011;4288;48.484;10.024;2023-06-19T04:58:12;5.70;;;2.60;;
8500;SDS011;4288;48.484;10.024;2023-06-19T05:00:39;3.00;;;2.70;;
8500;SDS011;4288;48.484;10.024;2023-06-19T05:03:07;2.57;;;2.37;;
8500;SDS011;4288;48.484;10.024;2023-06-19T05:05:36;3.07;;;2.60;;
8500;SDS011;4288;48.484;10.024;2023-06-19T05:08:03;5.23;;;3.10;;
8500;SDS011;4288;48.484;10.024;2023-06-19T05:10:30;2.50;;;2.30;;
8500;SDS011;4288;48.484;10.024;2023-06-19T05:12:58;4.47;;;2.27;;
8500;SDS011;4288;48.484;10.024;2023-06-19T05:15:25;3.53;;;2.70;;
8500;SDS011;4288;48.484;10.024;2023-06-19T05:17:53;3.07;;;2.77;;
8500;SDS011;4288;48.484;10.024;2023-06-19T05:20:20;4.23;;;2.90;;
8500;SDS011;4288;48.484;10.024;2023-06-19T05:22:49;3.40;;;2.57;;
8500;SDS011;4288;48.484;10.024;2023-06-19T05:25:16;3.60;;;2.80;;
8500;SDS011;4288;48.484;10.024;2023-06-19T05:27:43;2.63;;;2.43;;
8500;SDS011;4288;48.484;10.024;2023-06-19T05:30:11;4.50;;;2.30;;
8500;SDS011;4288;48.484;10.024;2023-06-19T05:32:39;4.00;;;2.60;;
8500;SDS011;4288;48.484;10.024;2023-06-19T05:35:06;3.37;;;2.70;;
8500;SDS011;4288;48.484;10.024;2023-06-19T05:37:34;2.70;;;2.50;;
8500;SDS011;4288;48.484;10.024;2023-06-19T05:40:05;2.93;;;2.63;;
8500;SDS011;4288;48.484;10.024;2023-06-19T05:42:33;2.53;;;2.33;;
8500;SDS011;4288;48.484;10.024;2023-06-19T05:45:01;4.20;;;2.77;;
8500;SDS011;4288;48.484;10.024;2023-06-19T05:47:28;3.10;;;2.80;;
8500;SDS011;4288;48.484;10.024;2023-06-19T05:49:56;5.00;;;2.63;;
8500;SDS011;4288;48.484;10.024;2023-06-19T05:52:23;6.27;;;2.60;;
8500;SDS011;4288;48.484;10.024;2023-06-19T05:54:51;5.23;;;3.60;;
8500;SDS011;4288;48.484;10.024;2023-06-19T05:57:20;6.67;;;2.70;;
8500;SDS011;4288;48.484;10.024;2023-06-19T05:59:47;3.63;;;2.97;;
8500;SDS011;4288;48.484;10.024;2023-06-19T06:02:15;10.33;;;3.87;;
8500;SDS011;4288;48.484;10.024;2023-06-19T06:04:43;7.73;;;3.70;;
8500;SDS011;4288;48.484;10.024;2023-06-19T06:07:11;7.73;;;3.20;;
8500;SDS011;4288;48.484;10.024;2023-06-19T06:09:38;6.93;;;4.17;;
8500;SDS011;4288;48.484;10.024;2023-06-19T06:12:06;5.23;;;4.23;;
8500;SDS011;4288;48.484;10.024;2023-06-19T06:14:35;7.23;;;4.60;;
8500;SDS011;4288;48.484;10.024;2023-06-19T06:17:03;5.40;;;3.40;;
8500;SDS011;4288;48.484;10.024;2023-06-19T06:19:31;5.93;;;3.97;;
8500;SDS011;4288;48.484;10.024;2023-06-19T06:21:58;4.17;;;3.43;;
8500;SDS011;4288;48.484;10.024;2023-06-19T06:24:25;7.00;;;5.07;;
8500;SDS011;4288;48.484;10.024;2023-06-19T06:26:53;7.93;;;5.87;;
8500;SDS011;4288;48.484;10.024;2023-06-19T06:29:20;7.10;;;5.60;;
8500;SDS011;4288;48.484;10.024;2023-06-19T06:31:49;9.73;;;4.83;;
8500;SDS011;4288;48.484;10.024;2023-06-19T06:34:17;8.00;;;5.03;;
8500;SDS011;4288;48.484;10.024;2023-06-19T06:36:45;12.43;;;5.63;;
8500;SDS011;4288;48.484;10.024;2023-06-19T06:39:12;7.23;;;5.10;;
8500;SDS011;4288;48.484;10.024;2023-06-19T06:41:40;8.37;;;4.53;;
8500;SDS011;4288;48.484;10.024;2023-06-19T06:44:07;5.57;;;4.60;;
8500;SDS011;4288;48.484;10.024;2023-06-19T06:46:36;5.27;;;4.13;;
8500;SDS011;4288;48.484;10.024;2023-06-19T06:49:04;8.60;;;5.80;;
8500;SDS011;4288;48.484;10.024;2023-06-19T06:51:32;10.37;;;5.50;;
8500;SDS011;4288;48.484;10.024;2023-06-19T06:53:59;9.90;;;5.40;;
8500;SDS011;4288;48.484;10.024;2023-06-19T06:56:26;9.80;;;5.97;;
8500;SDS011;4288;48.484;10.024;2023-06-19T06:58:54;6.50;;;4.97;;
8500;SDS011;4288;48.484;10.024;2023-06-19T07:01:21;5.87;;;4.80;;
8500;SDS011;4288;48.484;10.024;2023-06-19T07:03:49;7.00;;;5.53;;
8500;SDS011;4288;48.484;10.024;2023-06-19T07:06:17;5.10;;;4.60;;
8500;SDS011;4288;48.484;10.024;2023-06-19T07:08:45;6.70;;;5.30;;
8500;SDS011;4288;48.484;10.024;2023-06-19T07:11:13;6.50;;;5.17;;
8500;SDS011;4288;48.484;10.024;2023-06-19T07:13:40;10.73;;;5.40;;
8500;SDS011;4288;48.484;10.024;2023-06-19T07:16:07;6.03;;;4.47;;
8500;SDS011;4288;48.484;10.024;2023-06-19T07:18:35;5.83;;;5.20;;
8500;SDS011;4288;48.484;10.024;2023-06-19T07:21:03;6.47;;;5.27;;
8500;SDS011;4288;48.484;10.024;2023-06-19T07:23:36;5.60;;;4.97;;
8500;SDS011;4288;48.484;10.024;2023-06-19T07:26:04;4.80;;;4.27;;
8500;SDS011;4288;48.484;10.024;2023-06-19T07:28:32;6.43;;;4.50;;
8500;SDS011;4288;48.484;10.024;2023-06-19T07:31:01;4.83;;;4.33;;
8500;SDS011;4288;48.484;10.024;2023-06-19T07:33:28;5.57;;;4.90;;
8500;SDS011;4288;48.484;10.024;2023-06-19T07:35:56;5.00;;;4.50;;
8500;SDS011;4288;48.484;10.024;2023-06-19T07:38:23;4.23;;;3.83;;
8500;SDS011;4288;48.484;10.024;2023-06-19T07:40:52;5.03;;;3.83;;
8500;SDS011;4288;48.484;10.024;2023-06-19T07:43:19;5.30;;;4.20;;
8500;SDS011;4288;48.484;10.024;2023-06-19T07:45:47;7.40;;;3.87;;
8500;SDS011;4288;48.484;10.024;2023-06-19T07:48:15;3.97;;;3.33;;
8500;SDS011;4288;48.484;10.024;2023-06-19T07:50:42;3.50;;;2.73;;
8500;SDS011;4288;48.484;10.024;2023-06-19T07:53:11;3.43;;;3.13;;
8500;SDS011;4288;48.484;10.024;2023-06-19T07:55:38;5.03;;;3.80;;
8500;SDS011;4288;48.484;10.024;2023-06-19T07:58:07;3.33;;;3.03;;
8500;SDS011;4288;48.484;10.024;2023-06-19T08:00:34;5.80;;;3.40;;
8500;SDS011;4288;48.484;10.024;2023-06-19T08:03:01;5.13;;;3.50;;
8500;SDS011;4288;48.484;10.024;2023-06-19T08:05:29;5.93;;;3.53;;
8500;SDS011;4288;48.484;10.024;2023-06-19T08:07:58;3.83;;;3.43;;
8500;SDS011;4288;48.484;10.024;2023-06-19T08:10:26;5.23;;;3.60;;
8500;SDS011;4288;48.484;10.024;2023-06-19T08:12:54;8.87;;;3.80;;
8500;SDS011;4288;48.484;10.024;2023-06-19T08:15:22;5.00;;;3.90;;
8500;SDS011;4288;48.484;10.024;2023-06-19T08:17:50;3.27;;;3.00;;
8500;SDS011;4288;48.484;10.024;2023-06-19T08:20:17;5.63;;;3.57;;
8500;SDS011;4288;48.484;10.024;2023-06-19T08:22:45;3.73;;;3.33;;
8500;SDS011;4288;48.484;10.024;2023-06-19T08:25:12;5.50;;;3.40;;
8500;SDS011;4288;48.484;10.024;2023-06-19T08:27:40;4.17;;;2.90;;
8500;SDS011;4288;48.484;10.024;2023-06-19T08:30:10;3.90;;;3.60;;
8500;SDS011;4288;48.484;10.024;2023-06-19T08:32:39;3.80;;;3.37;;
8500;SDS011;4288;48.484;10.024;2023-06-19T08:35:06;3.57;;;3.27;;
8500;SDS011;4288;48.484;10.024;2023-06-19T08:37:34;3.77;;;3.40;;
8500;SDS011;4288;48.484;10.024;2023-06-19T08:40:02;12.00;;;4.20;;
8500;SDS011;4288;48.484;10.024;2023-06-19T08:42:34;4.73;;;3.03;;
8500;SDS011;4288;48.484;10.024;2023-06-19T08:45:01;5.87;;;3.40;;
8500;SDS011;4288;48.484;10.024;2023-06-19T08:47:29;6.37;;;3.63;;
8500;SDS011;4288;48.484;10.024;2023-06-19T08:49:59;5.80;;;4.40;;
8500;SDS011;4288;48.484;10.024;2023-06-19T08:52:26;3.40;;;3.10;;
8500;SDS011;4288;48.484;10.024;2023-06-19T08:54:53;4.00;;;3.27;;
8500;SDS011;4288;48.484;10.024;2023-06-19T08:57:21;4.67;;;3.30;;
8500;SDS011;4288;48.484;10.024;2023-06-19T08:59:48;3.90;;;3.20;;
8500;SDS011;4288;48.484;10.024;2023-06-19T09:02:16;4.47;;;3.30;;
8500;SDS011;4288;48.484;10.024;2023-06-19T09:04:44;14.80;;;4.10;;
8500;SDS011;4288;48.484;10.024;2023-06-19T09:07:12;4.60;;;3.07;;
8500;SDS011;4288;48.484;10.024;2023-06-19T09:09:43;4.23;;;3.17;;
8500;SDS011;4288;48.484;10.024;2023-06-19T09:12:12;3.67;;;2.90;;
8500;SDS011;4288;48.484;10.024;2023-06-19T09:14:42;7.80;;;3.67;;
8500;SDS011;4288;48.484;10.024;2023-06-19T09:17:11;7.50;;;3.00;;
8500;SDS011;4288;48.484;10.024;2023-06-19T09:19:46;7.93;;;3.07;;
8500;SDS011;4288;48.484;10.024;2023-06-19T09:22:16;3.50;;;2.80;;
8500;SDS011;4288;48.484;10.024;2023-06-19T09:24:44;4.50;;;2.57;;
8500;SDS011;4288;48.484;10.024;2023-06-19T09:27:13;9.70;;;3.40;;
8500;SDS011;4288;48.484;10.024;2023-06-19T09:29:44;5.83;;;2.80;;
8500;SDS011;4288;48.484;10.024;2023-06-19T09:32:16;3.80;;;3.20;;
8500;SDS011;4288;48.484;10.024;2023-06-19T09:34:44;4.53;;;3.57;;
8500;SDS011;4288;48.484;10.024;2023-06-19T09:37:12;3.17;;;2.87;;
8500;SDS011;4288;48.484;10.024;2023-06-19T09:39:41;8.00;;;3.37;;
8500;SDS011;4288;48.484;10.024;2023-06-19T09:42:09;6.70;;;3.10;;
8500;SDS011;4288;48.484;10.024;2023-06-19T09:44:39;4.33;;;3.47;;
8500;SDS011;4288;48.484;10.024;2023-06-19T09:47:11;3.07;;;2.67;;
8500;SDS011;4288;48.484;10.024;2023-06-19T09:49:47;3.40;;;2.80;;
8500;SDS011;4288;48.484;10.024;2023-06-19T09:52:19;2.80;;;2.60;;
8500;SDS011;4288;48.484;10.024;2023-06-19T09:54:50;3.23;;;2.97;;
8500;SDS011;4288;48.484;10.024;2023-06-19T09:57:19;3.10;;;2.80;;
8500;SDS011;4288;48.484;10.024;2023-06-19T09:59:47;3.20;;;2.90;;
8500;SDS011;4288;48.484;10.024;2023-06-19T10:02:16;2.70;;;2.50;;
8500;SDS011;4288;48.484;10.024;2023-06-19T10:04:46;7.90;;;3.90;;
8500;SDS011;4288;48.484;10.024;2023-06-19T10:07:16;4.10;;;3.30;;
8500;SDS011;4288;48.484;10.024;2023-06-19T10:09:59;4.60;;;3.10;;
8500;SDS011;4288;48.484;10.024;2023-06-19T10:12:36;8.50;;;3.30;;
8500;SDS011;4288;48.484;10.024;2023-06-19T10:15:12;3.53;;;3.23;;
8500;SDS011;4288;48.484;10.024;2023-06-19T10:17:42;3.83;;;2.57;;
8500;SDS011;4288;48.484;10.024;2023-06-19T10:20:22;2.70;;;2.50;;
8500;SDS011;4288;48.484;10.024;2023-06-19T10:22:51;3.57;;;2.40;;
8500;SDS011;4288;48.484;10.024;2023-06-19T10:25:21;4.10;;;1.97;;
8500;SDS011;4288;48.484;10.024;2023-06-19T10:27:49;4.97;;;2.50;;
8500;SDS011;4288;48.484;10.024;2023-06-19T10:30:18;2.67;;;2.10;;
8500;SDS011;4288;48.484;10.024;2023-06-19T10:32:45;3.97;;;2.97;;
8500;SDS011;4288;48.484;10.024;2023-06-19T10:35:13;3.20;;;2.90;;
8500;SDS011;4288;48.484;10.024;2023-06-19T10:37:43;4.03;;;2.50;;
8500;SDS011;4288;48.484;10.024;2023-06-19T10:40:11;3.43;;;2.43;;
8500;SDS011;4288;48.484;10.024;2023-06-19T10:42:40;12.07;;;5.07;;
8500;SDS011;4288;48.484;10.024;2023-06-19T10:45:08;15.30;;;6.23;;
8500;SDS011;4288;48.484;10.024;2023-06-19T10:47:37;15.13;;;6.33;;
8500;SDS011;4288;48.484;10.024;2023-06-19T10:50:09;10.80;;;4.47;;
8500;SDS011;4288;48.484;10.024;2023-06-19T10:52:40;29.83;;;12.93;;
8500;SDS011;4288;48.484;10.024;2023-06-19T10:55:09;31.63;;;10.87;;
8500;SDS011;4288;48.484;10.024;2023-06-19T10:57:37;9.40;;;4.53;;
8500;SDS011;4288;48.484;10.024;2023-06-19T11:00:07;7.03;;;3.73;;
8500;SDS011;4288;48.484;10.024;2023-06-19T11:02:38;25.43;;;10.20;;
8500;SDS011;4288;48.484;10.024;2023-06-19T11:05:08;8.23;;;3.97;;
8500;SDS011;4288;48.484;10.024;2023-06-19T11:07:36;6.50;;;3.47;;
8500;SDS011;4288;48.484;10.024;2023-06-19T11:10:04;4.17;;;3.37;;
8500;SDS011;4288;48.484;10.024;2023-06-19T11:12:32;4.77;;;3.40;;
8500;SDS011;4288;48.484;10.024;2023-06-19T11:15:04;3.23;;;2.80;;
8500;SDS011;4288;48.484;10.024;2023-06-19T11:17:32;3.00;;;2.67;;
8500;SDS011;4288;48.484;10.024;2023-06-19T11:20:02;10.90;;;5.87;;
8500;SDS011;4288;48.484;10.024;2023-06-19T11:22:37;4.30;;;3.20;;
8500;SDS011;4288;48.484;10.024;2023-06-19T11:25:06;3.20;;;2.70;;
8500;SDS011;4288;48.484;10.024;2023-06-19T11:27:36;4.03;;;3.63;;
8500;SDS011;4288;48.484;10.024;2023-06-19T11:30:06;4.40;;;3.30;;
8500;SDS011;4288;48.484;10.024;2023-06-19T11:32:35;4.70;;;3.80;;
8500;SDS011;4288;48.484;10.024;2023-06-19T11:35:07;5.93;;;3.00;;
8500;SDS011;4288;48.484;10.024;2023-06-19T11:37:39;3.03;;;2.83;;
8500;SDS011;4288;48.484;10.024;2023-06-19T11:40:08;4.40;;;3.13;;
8500;SDS011;4288;48.484;10.024;2023-06-19T11:42:52;4.50;;;3.20;;
8500;SDS011;4288;48.484;10.024;2023-06-19T11:45:22;7.17;;;3.67;;
8500;SDS011;4288;48.484;10.024;2023-06-19T11:47:49;3.40;;;3.10;;
8500;SDS011;4288;48.484;10.024;2023-06-19T11:50:16;5.13;;;2.93;;
8500;SDS011;4288;48.484;10.024;2023-06-19T11:52:46;3.30;;;2.70;;
8500;SDS011;4288;48.484;10.024;2023-06-19T11:55:13;5.20;;;2.87;;
8500;SDS011;4288;48.484;10.024;2023-06-19T11:57:42;2.23;;;2.07;;
8500;SDS011;4288;48.484;10.024;2023-06-19T12:00:13;2.60;;;2.40;;
8500;SDS011;4288;48.484;10.024;2023-06-19T12:02:43;3.03;;;2.53;;
8500;SDS011;4288;48.484;10.024;2023-06-19T12:05:12;2.90;;;2.30;;
8500;SDS011;4288;48.484;10.024;2023-06-19T12:07:40;3.00;;;2.70;;
8500;SDS011;4288;48.484;10.024;2023-06-19T12:10:08;3.30;;;3.00;;
8500;SDS011;4288;48.484;10.024;2023-06-19T12:12:37;3.30;;;2.83;;
8500;SDS011;4288;48.484;10.024;2023-06-19T12:15:05;4.87;;;2.80;;
8500;SDS011;4288;48.484;10.024;2023-06-19T12:17:33;2.60;;;2.30;;
8500;SDS011;4288;48.484;10.024;2023-06-19T12:20:02;4.30;;;2.00;;
8500;SDS011;4288;48.484;10.024;2023-06-19T12:22:32;4.73;;;2.93;;
8500;SDS011;4288;48.484;10.024;2023-06-19T12:24:59;2.37;;;2.20;;
8500;SDS011;4288;48.484;10.024;2023-06-19T12:27:27;3.00;;;2.80;;
8500;SDS011;4288;48.484;10.024;2023-06-19T12:29:54;2.43;;;2.07;;
8500;SDS011;4288;48.484;10.024;2023-06-19T12:32:22;3.13;;;2.83;;
8500;SDS011;4288;48.484;10.024;2023-06-19T12:34:49;3.60;;;2.40;;
8500;SDS011;4288;48.484;10.024;2023-06-19T12:37:20;2.23;;;1.93;;
8500;SDS011;4288;48.484;10.024;2023-06-19T12:39:48;2.67;;;2.03;;
8500;SDS011;4288;48.484;10.024;2023-06-19T12:42:16;3.83;;;2.30;;
8500;SDS011;4288;48.484;10.024;2023-06-19T12:44:44;3.13;;;2.17;;
8500;SDS011;4288;48.484;10.024;2023-06-19T12:47:12;2.60;;;2.40;;
8500;SDS011;4288;48.484;10.024;2023-06-19T12:49:40;3.20;;;2.00;;
8500;SDS011;4288;48.484;10.024;2023-06-19T12:52:07;3.03;;;2.53;;
8500;SDS011;4288;48.484;10.024;2023-06-19T12:54:36;2.40;;;2.20;;
8500;SDS011;4288;48.484;10.024;2023-06-19T12:57:07;3.60;;;2.90;;
8500;SDS011;4288;48.484;10.024;2023-06-19T12:59:34;2.67;;;2.47;;
8500;SDS011;4288;48.484;10.024;2023-06-19T13:02:01;9.93;;;2.50;;
8500;SDS011;4288;48.484;10.024;2023-06-19T13:04:29;2.63;;;2.43;;
8500;SDS011;4288;48.484;10.024;2023-06-19T13:06:57;3.20;;;2.30;;
8500;SDS011;4288;48.484;10.024;2023-06-19T13:09:24;2.47;;;1.83;;
8500;SDS011;4288;48.484;10.024;2023-06-19T13:11:53;3.67;;;2.33;;
8500;SDS011;4288;48.484;10.024;2023-06-19T13:14:20;2.23;;;2.03;;
8500;SDS011;4288;48.484;10.024;2023-06-19T13:16:47;2.13;;;1.90;;
8500;SDS011;4288;48.484;10.024;2023-06-19T13:19:15;2.73;;;2.10;;
8500;SDS011;4288;48.484;10.024;2023-06-19T13:21:42;2.30;;;2.10;;
8500;SDS011;4288;48.484;10.024;2023-06-19T13:24:10;2.60;;;2.40;;
8500;SDS011;4288;48.484;10.024;2023-06-19T13:26:37;3.50;;;2.07;;
8500;SDS011;4288;48.484;10.024;2023-06-19T13:29:06;3.30;;;2.50;;
8500;SDS011;4288;48.484;10.024;2023-06-19T13:31:33;2.93;;;2.53;;
8500;SDS011;4288;48.484;10.024;2023-06-19T13:34:01;2.40;;;2.20;;
8500;SDS011;4288;48.484;10.024;2023-06-19T13:36:29;2.57;;;2.37;;
8500;SDS011;4288;48.484;10.024;2023-06-19T13:38:57;4.07;;;2.70;;
8500;SDS011;4288;48.484;10.024;2023-06-19T13:41:24;3.27;;;2.97;;
8500;SDS011;4288;48.484;10.024;2023-06-19T13:43:52;4.03;;;2.47;;
8500;SDS011;4288;48.484;10.024;2023-06-19T13:46:20;6.77;;;2.57;;
8500;SDS011;4288;48.484;10.024;2023-06-19T13:48:48;3.67;;;2.93;;
8500;SDS011;4288;48.484;10.024;2023-06-19T13:51:16;2.60;;;2.40;;
8500;SDS011;4288;48.484;10.024;2023-06-19T13:53:44;5.40;;;2.70;;
8500;SDS011;4288;48.484;10.024;2023-06-19T13:56:11;4.30;;;2.60;;
8500;SDS011;4288;48.484;10.024;2023-06-19T13:58:39;4.73;;;3.07;;
8500;SDS011;4288;48.484;10.024;2023-06-19T14:01:07;5.00;;;3.27;;
8500;SDS011;4288;48.484;10.024;2023-06-19T14:03:37;5.90;;;2.70;;
8500;SDS011;4288;48.484;10.024;2023-06-19T14:06:05;2.60;;;2.40;;
8500;SDS011;4288;48.484;10.024;2023-06-19T14:08:33;3.40;;;2.53;;
8500;SDS011;4288;48.484;10.024;2023-06-19T14:11:01;2.77;;;2.47;;
8500;SDS011;4288;48.484;10.024;2023-06-19T14:13:29;2.87;;;2.60;;
8500;SDS011;4288;48.484;10.024;2023-06-19T14:15:56;6.00;;;3.03;;
8500;SDS011;4288;48.484;10.024;2023-06-19T14:18:24;4.53;;;2.90;;
8500;SDS011;4288;48.484;10.024;2023-06-19T14:20:52;2.60;;;2.40;;
8500;SDS011;4288;48.484;10.024;2023-06-19T14:23:20;3.10;;;2.80;;
8500;SDS011;4288;48.484;10.024;2023-06-19T14:25:48;4.17;;;3.30;;
8500;SDS011;4288;48.484;10.024;2023-06-19T14:28:15;3.47;;;2.63;;
8500;SDS011;4288;48.484;10.024;2023-06-19T14:30:42;2.37;;;2.17;;
8500;SDS011;4288;48.484;10.024;2023-06-19T14:33:10;5.77;;;3.17;;
8500;SDS011;4288;48.484;10.024;2023-06-19T14:35:40;3.33;;;2.93;;
8500;SDS011;4288;48.484;10.024;2023-06-19T14:38:11;3.10;;;2.63;;
8500;SDS011;4288;48.484;10.024;2023-06-19T14:40:39;2.80;;;2.20;;
8500;SDS011;4288;48.484;10.024;2023-06-19T14:43:07;3.30;;;2.57;;
8500;SDS011;4288;48.484;10.024;2023-06-19T14:45:35;3.53;;;2.80;;
8500;SDS011;4288;48.484;10.024;2023-06-19T14:48:03;3.00;;;2.60;;
8500;SDS011;4288;48.484;10.024;2023-06-19T14:50:31;3.77;;;2.30;;
8500;SDS011;4288;48.484;10.024;2023-06-19T14:52:59;3.97;;;2.77;;
8500;SDS011;4288;48.484;10.024;2023-06-19T14:55:27;5.60;;;3.67;;
8500;SDS011;4288;48.484;10.024;2023-06-19T14:57:55;6.53;;;2.80;;
8500;SDS011;4288;48.484;10.024;2023-06-19T15:00:22;3.07;;;2.80;;
8500;SDS011;4288;48.484;10.024;2023-06-19T15:02:50;2.97;;;2.67;;
8500;SDS011;4288;48.484;10.024;2023-06-19T15:05:17;4.40;;;3.07;;
8500;SDS011;4288;48.484;10.024;2023-06-19T15:07:44;4.23;;;3.10;;